Ansonville, North Carolina
Current Conditions -  °F | °C
As of 8:55 PM on Wednesday 22 Oct 2014 (Local Time) from KAFP Reporting Station
Clear Clear  
Wind Chill: 13°   Ceiling: Unl
Heat Index: 13°   Visibility: 10mi
Dew Point:   Wind: 7mph
Humidity: 53%   Direction: 320°NW
Pressure: 30.06"   Gusts: NA
Location:  35.1°N, 80.11°W
Report Text: KAFP 230055Z AUTO 32006KT 10SM CLR 13/04 A3006 RMK AO2 T01280035
Loading
Personal Weather Stations






























Interactive Weather Map
Tropical Storm Tracking
New forecast layout! Learn more

10-Day Weather Forecast

Advertisements
Track Severe Weather on mobile